sensor_id;sensor_type;location;lat;lon;timestamp;temperature;humidity
15815;DHT22;8008;50.024;8.172;2023-03-01T04:00:50;2.30;72.00
15815;DHT22;8008;50.024;8.172;2023-03-01T04:03:19;2.30;72.00
15815;DHT22;8008;50.024;8.172;2023-03-01T04:05:47;2.20;71.90
15815;DHT22;8008;50.024;8.172;2023-03-01T04:08:17;2.20;72.00
15815;DHT22;8008;50.024;8.172;2023-03-01T04:10:47;2.20;72.00
15815;DHT22;8008;50.024;8.172;2023-03-01T04:13:17;2.20;72.00
15815;DHT22;8008;50.024;8.172;2023-03-01T04:15:48;2.20;72.00
15815;DHT22;8008;50.024;8.172;2023-03-01T04:18:17;2.20;72.10
15815;DHT22;8008;50.024;8.172;2023-03-01T04:20:45;2.20;71.90
15815;DHT22;8008;50.024;8.172;2023-03-01T04:23:15;2.20;72.10
15815;DHT22;8008;50.024;8.172;2023-03-01T04:25:47;2.20;72.10
15815;DHT22;8008;50.024;8.172;2023-03-01T04:28:20;2.10;72.10
15815;DHT22;8008;50.024;8.172;2023-03-01T04:30:50;2.10;72.00
15815;DHT22;8008;50.024;8.172;2023-03-01T04:33:18;2.10;72.20
15815;DHT22;8008;50.024;8.172;2023-03-01T04:35:46;2.00;72.40
15815;DHT22;8008;50.024;8.172;2023-03-01T04:38:16;2.00;72.50
15815;DHT22;8008;50.024;8.172;2023-03-01T04:40:44;2.00;72.70
15815;DHT22;8008;50.024;8.172;2023-03-01T04:43:12;2.00;72.60
15815;DHT22;8008;50.024;8.172;2023-03-01T04:45:41;2.00;72.60
15815;DHT22;8008;50.024;8.172;2023-03-01T04:48:11;2.00;72.60
15815;DHT22;8008;50.024;8.172;2023-03-01T04:50:39;2.00;72.50
15815;DHT22;8008;50.024;8.172;2023-03-01T04:53:07;2.10;72.50
15815;DHT22;8008;50.024;8.172;2023-03-01T04:55:34;2.00;72.50
15815;DHT22;8008;50.024;8.172;2023-03-01T04:58:02;2.00;72.60
15815;DHT22;8008;50.024;8.172;2023-03-01T05:00:30;1.90;72.40
15815;DHT22;8008;50.024;8.172;2023-03-01T05:03:00;1.90;72.50
15815;DHT22;8008;50.024;8.172;2023-03-01T05:05:31;2.00;72.10
15815;DHT22;8008;50.024;8.172;2023-03-01T05:08:01;2.10;72.10
15815;DHT22;8008;50.024;8.172;2023-03-01T05:10:30;2.10;71.90
15815;DHT22;8008;50.024;8.172;2023-03-01T05:12:59;2.20;71.80
15815;DHT22;8008;50.024;8.172;2023-03-01T05:15:28;2.20;71.40
15815;DHT22;8008;50.024;8.172;2023-03-01T05:17:58;2.20;71.00
15815;DHT22;8008;50.024;8.172;2023-03-01T05:20:27;2.30;71.10
15815;DHT22;8008;50.024;8.172;2023-03-01T05:22:58;2.30;70.90
15815;DHT22;8008;50.024;8.172;2023-03-01T05:25:26;2.20;70.90
15815;DHT22;8008;50.024;8.172;2023-03-01T05:27:59;2.20;70.80
15815;DHT22;8008;50.024;8.172;2023-03-01T05:30:31;2.20;70.80
15815;DHT22;8008;50.024;8.172;2023-03-01T05:32:59;2.10;71.00
15815;DHT22;8008;50.024;8.172;2023-03-01T05:35:27;2.10;71.10
15815;DHT22;8008;50.024;8.172;2023-03-01T05:37:57;2.00;71.10
15815;DHT22;8008;50.024;8.172;2023-03-01T05:40:25;2.00;71.20
15815;DHT22;8008;50.024;8.172;2023-03-01T05:42:55;2.00;71.10
15815;DHT22;8008;50.024;8.172;2023-03-01T05:45:24;2.10;71.10
15815;DHT22;8008;50.024;8.172;2023-03-01T05:47:53;2.10;71.00
15815;DHT22;8008;50.024;8.172;2023-03-01T05:50:23;2.10;71.10
15815;DHT22;8008;50.024;8.172;2023-03-01T05:52:59;2.10;71.10
15815;DHT22;8008;50.024;8.172;2023-03-01T05:55:28;2.00;71.20
15815;DHT22;8008;50.024;8.172;2023-03-01T05:57:58;2.00;71.50
15815;DHT22;8008;50.024;8.172;2023-03-01T06:00:28;2.00;71.50
15815;DHT22;8008;50.024;8.172;2023-03-01T06:02:57;2.00;71.50
15815;DHT22;8008;50.024;8.172;2023-03-01T06:05:26;2.00;71.40
15815;DHT22;8008;50.024;8.172;2023-03-01T06:07:54;2.10;71.20
15815;DHT22;8008;50.024;8.172;2023-03-01T06:10:23;2.00;71.20
15815;DHT22;8008;50.024;8.172;2023-03-01T06:12:52;2.00;71.70
15815;DHT22;8008;50.024;8.172;2023-03-01T06:15:20;2.10;71.50
15815;DHT22;8008;50.024;8.172;2023-03-01T06:17:48;2.10;72.10
15815;DHT22;8008;50.024;8.172;2023-03-01T06:20:18;2.20;71.40
15815;DHT22;8008;50.024;8.172;2023-03-01T06:22:47;2.30;71.30
15815;DHT22;8008;50.024;8.172;2023-03-01T06:25:20;2.30;71.20
15815;DHT22;8008;50.024;8.172;2023-03-01T06:27:51;2.40;71.10
15815;DHT22;8008;50.024;8.172;2023-03-01T06:30:21;2.40;70.80
15815;DHT22;8008;50.024;8.172;2023-03-01T06:32:50;2.50;70.60
15815;DHT22;8008;50.024;8.172;2023-03-01T06:35:18;2.50;71.00
15815;DHT22;8008;50.024;8.172;2023-03-01T06:37:48;2.60;70.50
15815;DHT22;8008;50.024;8.172;2023-03-01T06:40:16;2.70;69.90
15815;DHT22;8008;50.024;8.172;2023-03-01T06:42:48;2.80;69.70
15815;DHT22;8008;50.024;8.172;2023-03-01T06:45:19;2.90;69.60
15815;DHT22;8008;50.024;8.172;2023-03-01T06:47:48;2.80;69.20
15815;DHT22;8008;50.024;8.172;2023-03-01T06:50:17;2.80;69.50
15815;DHT22;8008;50.024;8.172;2023-03-01T06:52:45;2.90;69.60
15815;DHT22;8008;50.024;8.172;2023-03-01T06:55:12;2.90;69.50
15815;DHT22;8008;50.024;8.172;2023-03-01T06:57:40;3.00;69.30
15815;DHT22;8008;50.024;8.172;2023-03-01T07:00:09;3.10;69.20
15815;DHT22;8008;50.024;8.172;2023-03-01T07:02:38;3.20;69.10
15815;DHT22;8008;50.024;8.172;2023-03-01T07:05:07;3.20;68.60
15815;DHT22;8008;50.024;8.172;2023-03-01T07:07:35;3.20;68.20
15815;DHT22;8008;50.024;8.172;2023-03-01T07:10:03;3.40;68.20
15815;DHT22;8008;50.024;8.172;2023-03-01T07:12:31;3.40;67.70
15815;DHT22;8008;50.024;8.172;2023-03-01T07:14:59;3.50;67.40
15815;DHT22;8008;50.024;8.172;2023-03-01T07:17:27;3.60;67.30
15815;DHT22;8008;50.024;8.172;2023-03-01T07:19:56;3.60;66.70
15815;DHT22;8008;50.024;8.172;2023-03-01T07:22:24;3.70;67.00
15815;DHT22;8008;50.024;8.172;2023-03-01T07:24:52;3.70;66.80
15815;DHT22;8008;50.024;8.172;2023-03-01T07:27:20;3.80;66.70
15815;DHT22;8008;50.024;8.172;2023-03-01T07:29:48;3.90;66.40
15815;DHT22;8008;50.024;8.172;2023-03-01T07:32:16;4.00;66.00
15815;DHT22;8008;50.024;8.172;2023-03-01T07:34:44;4.00;65.90
15815;DHT22;8008;50.024;8.172;2023-03-01T07:37:13;4.00;66.10
15815;DHT22;8008;50.024;8.172;2023-03-01T07:39:41;4.00;65.80
15815;DHT22;8008;50.024;8.172;2023-03-01T07:42:09;4.10;65.60
15815;DHT22;8008;50.024;8.172;2023-03-01T07:44:37;4.10;65.50
15815;DHT22;8008;50.024;8.172;2023-03-01T07:47:05;4.20;65.50
15815;DHT22;8008;50.024;8.172;2023-03-01T07:49:33;4.20;64.70
15815;DHT22;8008;50.024;8.172;2023-03-01T07:52:00;4.30;64.30
15815;DHT22;8008;50.024;8.172;2023-03-01T07:54:30;4.20;64.50
15815;DHT22;8008;50.024;8.172;2023-03-01T07:56:58;4.30;64.60
15815;DHT22;8008;50.024;8.172;2023-03-01T07:59:26;4.20;64.10
15815;DHT22;8008;50.024;8.172;2023-03-01T08:01:55;4.20;64.20
15815;DHT22;8008;50.024;8.172;2023-03-01T08:04:24;4.30;64.90
15815;DHT22;8008;50.024;8.172;2023-03-01T08:06:53;4.30;63.90
15815;DHT22;8008;50.024;8.172;2023-03-01T08:09:22;4.30;63.60
15815;DHT22;8008;50.024;8.172;2023-03-01T08:11:51;4.30;63.40
15815;DHT22;8008;50.024;8.172;2023-03-01T08:14:19;4.30;63.30
15815;DHT22;8008;50.024;8.172;2023-03-01T08:16:49;4.30;63.70
15815;DHT22;8008;50.024;8.172;2023-03-01T08:19:17;4.20;63.80
15815;DHT22;8008;50.024;8.172;2023-03-01T08:21:45;4.30;63.40
15815;DHT22;8008;50.024;8.172;2023-03-01T08:24:13;4.30;63.20
15815;DHT22;8008;50.024;8.172;2023-03-01T08:26:41;4.30;63.50
15815;DHT22;8008;50.024;8.172;2023-03-01T08:29:10;4.30;63.30
15815;DHT22;8008;50.024;8.172;2023-03-01T08:31:39;4.40;63.70
15815;DHT22;8008;50.024;8.172;2023-03-01T08:34:10;4.40;63.40
15815;DHT22;8008;50.024;8.172;2023-03-01T08:36:39;4.30;63.50
15815;DHT22;8008;50.024;8.172;2023-03-01T08:39:09;4.30;62.90
15815;DHT22;8008;50.024;8.172;2023-03-01T08:41:37;4.40;63.10
15815;DHT22;8008;50.024;8.172;2023-03-01T08:44:06;4.40;63.00
15815;DHT22;8008;50.024;8.172;2023-03-01T08:46:37;4.40;63.00
15815;DHT22;8008;50.024;8.172;2023-03-01T08:49:06;4.50;63.00
15815;DHT22;8008;50.024;8.172;2023-03-01T08:51:34;4.60;62.70
15815;DHT22;8008;50.024;8.172;2023-03-01T08:54:04;4.60;62.90
15815;DHT22;8008;50.024;8.172;2023-03-01T08:56:33;4.60;63.10
15815;DHT22;8008;50.024;8.172;2023-03-01T08:59:01;4.60;62.60
15815;DHT22;8008;50.024;8.172;2023-03-01T09:01:29;4.70;62.50
15815;DHT22;8008;50.024;8.172;2023-03-01T09:03:58;4.70;62.70
15815;DHT22;8008;50.024;8.172;2023-03-01T09:06:26;4.70;62.40
15815;DHT22;8008;50.024;8.172;2023-03-01T09:08:54;4.80;62.30
15815;DHT22;8008;50.024;8.172;2023-03-01T09:11:22;4.70;62.00
15815;DHT22;8008;50.024;8.172;2023-03-01T09:13:50;4.80;62.50
15815;DHT22;8008;50.024;8.172;2023-03-01T09:16:19;4.80;62.30
15815;DHT22;8008;50.024;8.172;2023-03-01T09:18:49;4.80;62.20
15815;DHT22;8008;50.024;8.172;2023-03-01T09:21:20;4.80;62.60
15815;DHT22;8008;50.024;8.172;2023-03-01T09:24:05;4.90;62.10
15815;DHT22;8008;50.024;8.172;2023-03-01T09:26:34;5.00;62.00
15815;DHT22;8008;50.024;8.172;2023-03-01T09:29:01;5.10;62.30
15815;DHT22;8008;50.024;8.172;2023-03-01T09:31:29;5.20;61.80
15815;DHT22;8008;50.024;8.172;2023-03-01T09:33:57;5.20;61.40
15815;DHT22;8008;50.024;8.172;2023-03-01T09:36:27;5.20;61.40
15815;DHT22;8008;50.024;8.172;2023-03-01T09:38:57;5.30;61.60
15815;DHT22;8008;50.024;8.172;2023-03-01T09:41:43;5.40;61.60
15815;DHT22;8008;50.024;8.172;2023-03-01T09:44:18;5.50;61.40
15815;DHT22;8008;50.024;8.172;2023-03-01T09:46:48;5.50;61.10
15815;DHT22;8008;50.024;8.172;2023-03-01T09:49:19;5.60;61.50
15815;DHT22;8008;50.024;8.172;2023-03-01T09:51:55;5.70;61.30
15815;DHT22;8008;50.024;8.172;2023-03-01T09:54:23;5.80;61.30
15815;DHT22;8008;50.024;8.172;2023-03-01T09:57:03;6.00;61.10
15815;DHT22;8008;50.024;8.172;2023-03-01T09:59:41;6.30;60.70
15815;DHT22;8008;50.024;8.172;2023-03-01T10:02:23;6.50;60.80
15815;DHT22;8008;50.024;8.172;2023-03-01T10:04:55;6.60;60.20
15815;DHT22;8008;50.024;8.172;2023-03-01T10:07:36;6.60;59.80
15815;DHT22;8008;50.024;8.172;2023-03-01T10:10:11;6.60;59.50
15815;DHT22;8008;50.024;8.172;2023-03-01T10:12:44;6.70;59.50
15815;DHT22;8008;50.024;8.172;2023-03-01T10:15:15;6.70;59.60
15815;DHT22;8008;50.024;8.172;2023-03-01T10:17:49;6.80;60.00
15815;DHT22;8008;50.024;8.172;2023-03-01T10:20:20;6.90;60.10
15815;DHT22;8008;50.024;8.172;2023-03-01T10:22:49;7.00;59.80
15815;DHT22;8008;50.024;8.172;2023-03-01T10:25:28;7.00;59.40
15815;DHT22;8008;50.024;8.172;2023-03-01T10:28:02;7.00;59.70
15815;DHT22;8008;50.024;8.172;2023-03-01T10:30:35;7.10;59.40
15815;DHT22;8008;50.024;8.172;2023-03-01T10:33:13;7.10;59.20
15815;DHT22;8008;50.024;8.172;2023-03-01T10:35:41;7.10;59.00
15815;DHT22;8008;50.024;8.172;2023-03-01T10:38:12;7.10;58.90
15815;DHT22;8008;50.024;8.172;2023-03-01T10:40:51;7.20;58.80
15815;DHT22;8008;50.024;8.172;2023-03-01T10:43:20;7.20;58.80
15815;DHT22;8008;50.024;8.172;2023-03-01T10:45:48;7.20;59.10
15815;DHT22;8008;50.024;8.172;2023-03-01T10:48:18;7.30;58.50
15815;DHT22;8008;50.024;8.172;2023-03-01T10:50:49;7.30;58.50
15815;DHT22;8008;50.024;8.172;2023-03-01T10:53:25;7.40;58.50
15815;DHT22;8008;50.024;8.172;2023-03-01T10:56:04;7.50;58.70
15815;DHT22;8008;50.024;8.172;2023-03-01T10:58:34;7.50;58.40
15815;DHT22;8008;50.024;8.172;2023-03-01T11:01:05;7.60;58.00
15815;DHT22;8008;50.024;8.172;2023-03-01T11:03:34;7.80;58.50
15815;DHT22;8008;50.024;8.172;2023-03-01T11:06:06;8.10;57.90
15815;DHT22;8008;50.024;8.172;2023-03-01T11:08:47;8.30;58.30
15815;DHT22;8008;50.024;8.172;2023-03-01T11:11:22;8.30;56.90
15815;DHT22;8008;50.024;8.172;2023-03-01T11:13:54;8.30;56.90
15815;DHT22;8008;50.024;8.172;2023-03-01T11:16:25;8.30;56.60
15815;DHT22;8008;50.024;8.172;2023-03-01T11:18:59;8.20;56.80
15815;DHT22;8008;50.024;8.172;2023-03-01T11:21:28;8.00;56.80
15815;DHT22;8008;50.024;8.172;2023-03-01T11:24:01;7.80;57.20
15815;DHT22;8008;50.024;8.172;2023-03-01T11:26:34;7.70;57.30
15815;DHT22;8008;50.024;8.172;2023-03-01T11:29:07;7.70;57.40
15815;DHT22;8008;50.024;8.172;2023-03-01T11:31:41;7.70;57.60
15815;DHT22;8008;50.024;8.172;2023-03-01T11:34:33;7.50;57.00
15815;DHT22;8008;50.024;8.172;2023-03-01T11:37:04;7.50;57.00
15815;DHT22;8008;50.024;8.172;2023-03-01T11:39:41;7.40;57.40
15815;DHT22;8008;50.024;8.172;2023-03-01T11:42:14;7.40;57.40
15815;DHT22;8008;50.024;8.172;2023-03-01T11:44:47;7.50;57.20
15815;DHT22;8008;50.024;8.172;2023-03-01T11:47:24;7.40;56.70
15815;DHT22;8008;50.024;8.172;2023-03-01T11:50:19;7.40;57.00
15815;DHT22;8008;50.024;8.172;2023-03-01T11:53:00;7.50;57.10
15815;DHT22;8008;50.024;8.172;2023-03-01T11:55:41;7.50;56.90
15815;DHT22;8008;50.024;8.172;2023-03-01T11:58:31;7.60;56.70
15815;DHT22;8008;50.024;8.172;2023-03-01T12:01:22;7.70;56.30
15815;DHT22;8008;50.024;8.172;2023-03-01T12:06:59;7.70;56.40
15815;DHT22;8008;50.024;8.172;2023-03-01T12:09:38;7.80;56.50
15815;DHT22;8008;50.024;8.172;2023-03-01T12:15:24;8.00;55.70
15815;DHT22;8008;50.024;8.172;2023-03-01T12:18:18;8.00;55.90
15815;DHT22;8008;50.024;8.172;2023-03-01T12:20:59;8.00;55.90
15815;DHT22;8008;50.024;8.172;2023-03-01T12:23:54;8.10;56.10
15815;DHT22;8008;50.024;8.172;2023-03-01T12:26:29;8.10;56.10
15815;DHT22;8008;50.024;8.172;2023-03-01T12:29:22;8.20;55.60
15815;DHT22;8008;50.024;8.172;2023-03-01T12:32:20;8.30;55.00
15815;DHT22;8008;50.024;8.172;2023-03-01T12:35:01;8.30;54.70
15815;DHT22;8008;50.024;8.172;2023-03-01T12:37:39;8.40;54.70
15815;DHT22;8008;50.024;8.172;2023-03-01T12:40:33;8.30;54.30
15815;DHT22;8008;50.024;8.172;2023-03-01T12:43:22;8.30;55.00
15815;DHT22;8008;50.024;8.172;2023-03-01T12:46:18;8.20;54.20
15815;DHT22;8008;50.024;8.172;2023-03-01T12:48:59;8.30;54.90
15815;DHT22;8008;50.024;8.172;2023-03-01T12:51:31;8.40;54.50
15815;DHT22;8008;50.024;8.172;2023-03-01T12:54:07;8.40;53.40
15815;DHT22;8008;50.024;8.172;2023-03-01T12:56:39;8.50;53.40
15815;DHT22;8008;50.024;8.172;2023-03-01T12:59:13;8.40;53.30
15815;DHT22;8008;50.024;8.172;2023-03-01T13:01:49;8.40;53.10
15815;DHT22;8008;50.024;8.172;2023-03-01T13:04:27;8.40;53.70
15815;DHT22;8008;50.024;8.172;2023-03-01T13:07:14;8.40;53.30
15815;DHT22;8008;50.024;8.172;2023-03-01T13:09:49;8.40;53.40
15815;DHT22;8008;50.024;8.172;2023-03-01T13:12:45;8.50;54.20
15815;DHT22;8008;50.024;8.172;2023-03-01T13:15:28;8.50;53.90
15815;DHT22;8008;50.024;8.172;2023-03-01T13:17:59;8.50;53.30
15815;DHT22;8008;50.024;8.172;2023-03-01T13:20:31;8.60;53.40
15815;DHT22;8008;50.024;8.172;2023-03-01T13:23:12;8.60;53.50
15815;DHT22;8008;50.024;8.172;2023-03-01T13:26:07;8.70;53.10
15815;DHT22;8008;50.024;8.172;2023-03-01T13:28:46;8.80;53.40
15815;DHT22;8008;50.024;8.172;2023-03-01T13:34:44;8.90;53.90
15815;DHT22;8008;50.024;8.172;2023-03-01T13:37:25;8.90;54.60
15815;DHT22;8008;50.024;8.172;2023-03-01T13:39:57;8.80;54.20
15815;DHT22;8008;50.024;8.172;2023-03-01T13:42:37;8.80;54.50
15815;DHT22;8008;50.024;8.172;2023-03-01T13:45:24;8.90;54.70
15815;DHT22;8008;50.024;8.172;2023-03-01T13:47:58;8.90;54.60
15815;DHT22;8008;50.024;8.172;2023-03-01T13:50:33;8.90;54.30
15815;DHT22;8008;50.024;8.172;2023-03-01T13:53:05;8.90;54.60
15815;DHT22;8008;50.024;8.172;2023-03-01T13:55:40;9.00;55.40
15815;DHT22;8008;50.024;8.172;2023-03-01T13:58:18;9.10;55.00
15815;DHT22;8008;50.024;8.172;2023-03-01T14:00:47;9.10;54.80
15815;DHT22;8008;50.024;8.172;2023-03-01T14:03:22;9.10;53.80
15815;DHT22;8008;50.024;8.172;2023-03-01T14:06:04;9.10;54.10
15815;DHT22;8008;50.024;8.172;2023-03-01T14:08:43;9.10;54.40
15815;DHT22;8008;50.024;8.172;2023-03-01T14:14:18;9.10;54.00
15815;DHT22;8008;50.024;8.172;2023-03-01T14:16:55;9.20;54.30
15815;DHT22;8008;50.024;8.172;2023-03-01T14:19:27;9.20;54.00
15815;DHT22;8008;50.024;8.172;2023-03-01T14:22:10;9.30;54.30
15815;DHT22;8008;50.024;8.172;2023-03-01T14:24:46;9.30;53.80
15815;DHT22;8008;50.024;8.172;2023-03-01T14:27:16;9.50;53.90
15815;DHT22;8008;50.024;8.172;2023-03-01T14:29:54;9.60;53.40
15815;DHT22;8008;50.024;8.172;2023-03-01T14:32:26;9.70;53.40
15815;DHT22;8008;50.024;8.172;2023-03-01T14:34:55;10.20;52.60
15815;DHT22;8008;50.024;8.172;2023-03-01T14:37:28;11.60;52.20
15815;DHT22;8008;50.024;8.172;2023-03-01T14:39:57;13.60;50.50
15815;DHT22;8008;50.024;8.172;2023-03-01T14:42:28;15.20;48.60
15815;DHT22;8008;50.024;8.172;2023-03-01T14:44:57;16.50;48.00
15815;DHT22;8008;50.024;8.172;2023-03-01T14:47:28;17.50;46.80
15815;DHT22;8008;50.024;8.172;2023-03-01T14:49:59;18.30;45.70
15815;DHT22;8008;50.024;8.172;2023-03-01T14:52:36;19.10;44.00
15815;DHT22;8008;50.024;8.172;2023-03-01T14:55:07;19.60;43.30
15815;DHT22;8008;50.024;8.172;2023-03-01T14:57:43;20.00;43.20
15815;DHT22;8008;50.024;8.172;2023-03-01T15:00:17;20.40;42.20
15815;DHT22;8008;50.024;8.172;2023-03-01T15:02:47;20.50;41.20
15815;DHT22;8008;50.024;8.172;2023-03-01T15:05:18;20.60;40.90
15815;DHT22;8008;50.024;8.172;2023-03-01T15:07:51;20.50;40.60
15815;DHT22;8008;50.024;8.172;2023-03-01T15:10:22;20.80;40.40
15815;DHT22;8008;50.024;8.172;2023-03-01T15:12:51;20.70;39.70
15815;DHT22;8008;50.024;8.172;2023-03-01T15:15:31;20.70;40.00
15815;DHT22;8008;50.024;8.172;2023-03-01T15:18:01;20.90;39.60
15815;DHT22;8008;50.024;8.172;2023-03-01T15:20:30;20.60;39.10
15815;DHT22;8008;50.024;8.172;2023-03-01T15:23:03;20.70;39.50
15815;DHT22;8008;50.024;8.172;2023-03-01T15:25:32;20.70;39.00
15815;DHT22;8008;50.024;8.172;2023-03-01T15:28:01;19.80;38.80
15815;DHT22;8008;50.024;8.172;2023-03-01T15:30:32;18.00;38.40
15815;DHT22;8008;50.024;8.172;2023-03-01T15:33:17;16.20;39.10
15815;DHT22;8008;50.024;8.172;2023-03-01T15:35:47;14.40;40.90
15815;DHT22;8008;50.024;8.172;2023-03-01T15:38:29;13.40;42.00
15815;DHT22;8008;50.024;8.172;2023-03-01T15:40:59;12.60;42.80
15815;DHT22;8008;50.024;8.172;2023-03-01T15:43:42;12.10;44.70
15815;DHT22;8008;50.024;8.172;2023-03-01T15:46:26;11.70;44.50
15815;DHT22;8008;50.024;8.172;2023-03-01T15:48:58;11.30;44.90
15815;DHT22;8008;50.024;8.172;2023-03-01T15:51:32;11.10;45.50
15815;DHT22;8008;50.024;8.172;2023-03-01T15:54:05;10.90;45.40
15815;DHT22;8008;50.024;8.172;2023-03-01T15:56:34;10.70;45.70
15815;DHT22;8008;50.024;8.172;2023-03-01T15:59:02;10.50;46.50
15815;DHT22;8008;50.024;8.172;2023-03-01T16:01:31;10.40;45.90
15815;DHT22;8008;50.024;8.172;2023-03-01T16:04:00;10.20;45.90
15815;DHT22;8008;50.024;8.172;2023-03-01T16:06:28;10.00;46.00
15815;DHT22;8008;50.024;8.172;2023-03-01T16:08:57;9.90;47.20
15815;DHT22;8008;50.024;8.172;2023-03-01T16:11:26;9.80;47.50
15815;DHT22;8008;50.024;8.172;2023-03-01T16:13:54;9.70;48.00
15815;DHT22;8008;50.024;8.172;2023-03-01T16:16:22;9.60;48.50
15815;DHT22;8008;50.024;8.172;2023-03-01T16:18:50;9.50;49.00
15815;DHT22;8008;50.024;8.172;2023-03-01T16:21:23;9.40;48.80
15815;DHT22;8008;50.024;8.172;2023-03-01T16:23:52;9.30;49.30
15815;DHT22;8008;50.024;8.172;2023-03-01T16:26:20;9.30;49.20
15815;DHT22;8008;50.024;8.172;2023-03-01T16:28:49;9.10;49.60
15815;DHT22;8008;50.024;8.172;2023-03-01T16:31:19;9.00;49.90
15815;DHT22;8008;50.024;8.172;2023-03-01T16:33:48;9.00;50.20
15815;DHT22;8008;50.024;8.172;2023-03-01T16:36:19;8.90;50.10
15815;DHT22;8008;50.024;8.172;2023-03-01T16:38:50;8.90;50.20
15815;DHT22;8008;50.024;8.172;2023-03-01T16:41:20;8.80;50.30
15815;DHT22;8008;50.024;8.172;2023-03-01T16:43:50;8.70;50.50
15815;DHT22;8008;50.024;8.172;2023-03-01T16:46:19;8.70;50.60
15815;DHT22;8008;50.024;8.172;2023-03-01T16:48:48;8.50;50.80
15815;DHT22;8008;50.024;8.172;2023-03-01T16:51:17;8.40;51.00
15815;DHT22;8008;50.024;8.172;2023-03-01T16:53:45;8.40;50.90
15815;DHT22;8008;50.024;8.172;2023-03-01T16:56:13;8.20;51.10
15815;DHT22;8008;50.024;8.172;2023-03-01T16:58:42;8.20;51.30
15815;DHT22;8008;50.024;8.172;2023-03-01T17:01:14;8.20;51.70
15815;DHT22;8008;50.024;8.172;2023-03-01T17:03:42;8.20;51.70
15815;DHT22;8008;50.024;8.172;2023-03-01T17:06:15;8.10;51.50
15815;DHT22;8008;50.024;8.172;2023-03-01T17:08:43;8.00;51.60
15815;DHT22;8008;50.024;8.172;2023-03-01T17:11:12;8.00;51.80
15815;DHT22;8008;50.024;8.172;2023-03-01T17:13:41;7.90;51.40
15815;DHT22;8008;50.024;8.172;2023-03-01T17:16:13;7.90;51.60
15815;DHT22;8008;50.024;8.172;2023-03-01T17:18:42;7.90;51.50
15815;DHT22;8008;50.024;8.172;2023-03-01T17:21:11;7.90;51.70
15815;DHT22;8008;50.024;8.172;2023-03-01T17:23:42;7.90;51.60
15815;DHT22;8008;50.024;8.172;2023-03-01T17:26:11;7.80;51.80
15815;DHT22;8008;50.024;8.172;2023-03-01T17:28:39;7.80;52.10
15815;DHT22;8008;50.024;8.172;2023-03-01T17:31:09;7.70;51.70
15815;DHT22;8008;50.024;8.172;2023-03-01T17:33:38;7.70;51.90
15815;DHT22;8008;50.024;8.172;2023-03-01T17:36:06;7.60;51.80
15815;DHT22;8008;50.024;8.172;2023-03-01T17:38:34;7.60;52.10
15815;DHT22;8008;50.024;8.172;2023-03-01T17:41:03;7.60;52.00
15815;DHT22;8008;50.024;8.172;2023-03-01T17:43:31;7.50;52.50
15815;DHT22;8008;50.024;8.172;2023-03-01T17:46:00;7.50;52.40
15815;DHT22;8008;50.024;8.172;2023-03-01T17:48:29;7.50;52.60
15815;DHT22;8008;50.024;8.172;2023-03-01T17:50:58;7.50;52.90
15815;DHT22;8008;50.024;8.172;2023-03-01T17:53:26;7.40;53.10
15815;DHT22;8008;50.024;8.172;2023-03-01T17:55:59;7.30;52.70
15815;DHT22;8008;50.024;8.172;2023-03-01T17:58:28;7.30;52.70
15815;DHT22;8008;50.024;8.172;2023-03-01T18:01:05;7.30;52.70
15815;DHT22;8008;50.024;8.172;2023-03-01T18:03:33;7.20;53.00
15815;DHT22;8008;50.024;8.172;2023-03-01T18:06:10;7.20;53.40
15815;DHT22;8008;50.024;8.172;2023-03-01T18:08:38;7.20;53.00
15815;DHT22;8008;50.024;8.172;2023-03-01T18:11:06;7.10;52.90
15815;DHT22;8008;50.024;8.172;2023-03-01T18:13:34;7.10;53.20
15815;DHT22;8008;50.024;8.172;2023-03-01T18:16:04;7.10;53.40
15815;DHT22;8008;50.024;8.172;2023-03-01T18:18:32;7.10;53.40
15815;DHT22;8008;50.024;8.172;2023-03-01T18:21:02;7.00;53.50
15815;DHT22;8008;50.024;8.172;2023-03-01T18:23:31;7.00;53.40
15815;DHT22;8008;50.024;8.172;2023-03-01T18:26:01;7.00;53.30
15815;DHT22;8008;50.024;8.172;2023-03-01T18:28:30;6.90;53.20
15815;DHT22;8008;50.024;8.172;2023-03-01T18:30:58;6.80;53.30
15815;DHT22;8008;50.024;8.172;2023-03-01T18:33:27;6.80;53.40
15815;DHT22;8008;50.024;8.172;2023-03-01T18:35:55;6.80;53.50
15815;DHT22;8008;50.024;8.172;2023-03-01T18:38:24;6.70;53.40
15815;DHT22;8008;50.024;8.172;2023-03-01T18:40:52;6.70;53.60
15815;DHT22;8008;50.024;8.172;2023-03-01T18:43:20;6.70;53.80
15815;DHT22;8008;50.024;8.172;2023-03-01T18:45:55;6.70;53.80
15815;DHT22;8008;50.024;8.172;2023-03-01T18:48:24;6.60;53.90
15815;DHT22;8008;50.024;8.172;2023-03-01T18:50:52;6.60;53.90
15815;DHT22;8008;50.024;8.172;2023-03-01T18:53:20;6.60;54.00
15815;DHT22;8008;50.024;8.172;2023-03-01T18:55:50;6.60;53.90
15815;DHT22;8008;50.024;8.172;2023-03-01T18:58:18;6.50;53.60
15815;DHT22;8008;50.024;8.172;2023-03-01T19:00:45;6.50;53.70
15815;DHT22;8008;50.024;8.172;2023-03-01T19:03:13;6.50;53.60
15815;DHT22;8008;50.024;8.172;2023-03-01T19:05:41;6.40;53.70
15815;DHT22;8008;50.024;8.172;2023-03-01T19:08:09;6.40;53.50
15815;DHT22;8008;50.024;8.172;2023-03-01T19:10:37;6.40;53.50
15815;DHT22;8008;50.024;8.172;2023-03-01T19:13:06;6.40;53.60
15815;DHT22;8008;50.024;8.172;2023-03-01T19:15:34;6.40;53.60
15815;DHT22;8008;50.024;8.172;2023-03-01T19:18:02;6.40;53.40
15815;DHT22;8008;50.024;8.172;2023-03-01T19:20:31;6.40;53.30
15815;DHT22;8008;50.024;8.172;2023-03-01T19:22:59;6.40;53.30
15815;DHT22;8008;50.024;8.172;2023-03-01T19:25:27;6.30;53.30
15815;DHT22;8008;50.024;8.172;2023-03-01T19:27:55;6.30;53.50
15815;DHT22;8008;50.024;8.172;2023-03-01T19:30:24;6.30;53.50
15815;DHT22;8008;50.024;8.172;2023-03-01T19:32:52;6.30;53.70
15815;DHT22;8008;50.024;8.172;2023-03-01T19:35:20;6.20;53.60
15815;DHT22;8008;50.024;8.172;2023-03-01T19:37:49;6.20;53.70
15815;DHT22;8008;50.024;8.172;2023-03-01T19:40:17;6.20;53.80
15815;DHT22;8008;50.024;8.172;2023-03-01T19:42:45;6.20;53.70
15815;DHT22;8008;50.024;8.172;2023-03-01T19:45:13;6.10;53.80
15815;DHT22;8008;50.024;8.172;2023-03-01T19:47:47;6.10;54.10
15815;DHT22;8008;50.024;8.172;2023-03-01T19:50:16;6.10;54.10
15815;DHT22;8008;50.024;8.172;2023-03-01T19:52:44;6.10;54.10
15815;DHT22;8008;50.024;8.172;2023-03-01T19:55:12;6.00;54.40
15815;DHT22;8008;50.024;8.172;2023-03-01T19:57:40;6.00;54.40
15815;DHT22;8008;50.024;8.172;2023-03-01T20:00:09;6.00;54.30
15815;DHT22;8008;50.024;8.172;2023-03-01T20:02:40;6.00;54.40
15815;DHT22;8008;50.024;8.172;2023-03-01T20:05:09;6.00;54.50
15815;DHT22;8008;50.024;8.172;2023-03-01T20:07:37;5.90;54.50
15815;DHT22;8008;50.024;8.172;2023-03-01T20:10:06;5.90;54.50
15815;DHT22;8008;50.024;8.172;2023-03-01T20:12:35;5.90;54.50
15815;DHT22;8008;50.024;8.172;2023-03-01T20:15:03;5.90;54.50
15815;DHT22;8008;50.024;8.172;2023-03-01T20:17:31;5.90;54.80
15815;DHT22;8008;50.024;8.172;2023-03-01T20:19:59;5.90;54.50
15815;DHT22;8008;50.024;8.172;2023-03-01T20:22:28;5.90;55.00
15815;DHT22;8008;50.024;8.172;2023-03-01T20:24:56;5.80;54.80
15815;DHT22;8008;50.024;8.172;2023-03-01T20:27:24;5.80;55.00
15815;DHT22;8008;50.024;8.172;2023-03-01T20:29:52;5.70;55.10
15815;DHT22;8008;50.024;8.172;2023-03-01T20:32:20;5.60;55.00
15815;DHT22;8008;50.024;8.172;2023-03-01T20:34:48;5.60;55.20
15815;DHT22;8008;50.024;8.172;2023-03-01T20:37:16;5.60;55.70
15815;DHT22;8008;50.024;8.172;2023-03-01T20:39:45;5.60;55.50